sensor_id;sensor_type;location;lat;lon;timestamp;temperature;humidity
63802;DHT22;49949;43.060;25.624;2022-09-09T00:00:26;19.50;92.50
63802;DHT22;49949;43.060;25.624;2022-09-09T00:03:02;19.40;94.10
63802;DHT22;49949;43.060;25.624;2022-09-09T00:08:24;19.20;96.00
63802;DHT22;49949;43.060;25.624;2022-09-09T00:10:58;19.30;96.90
63802;DHT22;49949;43.060;25.624;2022-09-09T00:13:36;19.00;97.70
63802;DHT22;49949;43.060;25.624;2022-09-09T00:16:17;19.00;98.70
63802;DHT22;49949;43.060;25.624;2022-09-09T00:21:37;21.20;99.90
63802;DHT22;49949;43.060;25.624;2022-09-09T00:24:26;18.70;99.90
63802;DHT22;49949;43.060;25.624;2022-09-09T00:27:32;18.60;99.90
63802;DHT22;49949;43.060;25.624;2022-09-09T00:30:00;18.50;99.90
63802;DHT22;49949;43.060;25.624;2022-09-09T00:32:30;18.40;99.90
63802;DHT22;49949;43.060;25.624;2022-09-09T00:35:15;18.40;99.90
63802;DHT22;49949;43.060;25.624;2022-09-09T00:37:42;18.80;99.50
63802;DHT22;49949;43.060;25.624;2022-09-09T00:40:27;19.10;99.90
63802;DHT22;49949;43.060;25.624;2022-09-09T00:48:39;19.30;96.30
63802;DHT22;49949;43.060;25.624;2022-09-09T00:51:22;19.40;96.50
63802;DHT22;49949;43.060;25.624;2022-09-09T00:59:39;19.00;97.90
63802;DHT22;49949;43.060;25.624;2022-09-09T01:02:16;19.00;98.20
63802;DHT22;49949;43.060;25.624;2022-09-09T01:04:43;18.80;99.70
63802;DHT22;49949;43.060;25.624;2022-09-09T01:07:16;18.80;99.70
63802;DHT22;49949;43.060;25.624;2022-09-09T01:12:35;18.60;99.90
63802;DHT22;49949;43.060;25.624;2022-09-09T01:15:22;18.40;99.90
63802;DHT22;49949;43.060;25.624;2022-09-09T01:18:11;18.60;99.90
63802;DHT22;49949;43.060;25.624;2022-09-09T01:23:47;18.50;99.90
63802;DHT22;49949;43.060;25.624;2022-09-09T01:26:23;18.40;99.90
63802;DHT22;49949;43.060;25.624;2022-09-09T01:28:52;18.40;99.90
63802;DHT22;49949;43.060;25.624;2022-09-09T01:31:24;17.10;99.90
63802;DHT22;49949;43.060;25.624;2022-09-09T01:33:52;18.30;99.90
63802;DHT22;49949;43.060;25.624;2022-09-09T01:36:20;18.30;99.90
63802;DHT22;49949;43.060;25.624;2022-09-09T01:38:47;18.60;97.60
63802;DHT22;49949;43.060;25.624;2022-09-09T01:41:13;18.90;95.00
63802;DHT22;49949;43.060;25.624;2022-09-09T01:43:39;19.30;93.00
63802;DHT22;49949;43.060;25.624;2022-09-09T01:46:05;19.40;94.40
63802;DHT22;49949;43.060;25.624;2022-09-09T01:48:31;19.60;92.80
63802;DHT22;49949;43.060;25.624;2022-09-09T01:50:57;19.70;90.90
63802;DHT22;49949;43.060;25.624;2022-09-09T01:53:22;19.80;92.50
63802;DHT22;49949;43.060;25.624;2022-09-09T01:56:21;20.00;90.60
63802;DHT22;49949;43.060;25.624;2022-09-09T01:59:18;20.10;89.30
63802;DHT22;49949;43.060;25.624;2022-09-09T02:07:00;19.30;97.10
63802;DHT22;49949;43.060;25.624;2022-09-09T02:09:29;18.90;99.60
63802;DHT22;49949;43.060;25.624;2022-09-09T02:12:16;18.70;99.90
63802;DHT22;49949;43.060;25.624;2022-09-09T02:14:50;18.90;99.00
63802;DHT22;49949;43.060;25.624;2022-09-09T02:17:25;18.80;99.90
63802;DHT22;49949;43.060;25.624;2022-09-09T02:19:56;18.50;99.90
63802;DHT22;49949;43.060;25.624;2022-09-09T02:22:26;20.10;99.90
63802;DHT22;49949;43.060;25.624;2022-09-09T02:24:56;18.60;99.90
63802;DHT22;49949;43.060;25.624;2022-09-09T02:27:24;18.70;98.60
63802;DHT22;49949;43.060;25.624;2022-09-09T02:29:51;18.60;99.90
63802;DHT22;49949;43.060;25.624;2022-09-09T02:32:21;18.30;99.90
63802;DHT22;49949;43.060;25.624;2022-09-09T02:35:05;18.10;99.90
63802;DHT22;49949;43.060;25.624;2022-09-09T02:37:38;17.90;99.90
63802;DHT22;49949;43.060;25.624;2022-09-09T02:40:06;17.80;99.90
63802;DHT22;49949;43.060;25.624;2022-09-09T02:42:45;17.80;99.90
63802;DHT22;49949;43.060;25.624;2022-09-09T02:45:14;17.70;99.90
63802;DHT22;49949;43.060;25.624;2022-09-09T02:50:54;17.70;99.90
63802;DHT22;49949;43.060;25.624;2022-09-09T02:53:28;17.60;99.90
63802;DHT22;49949;43.060;25.624;2022-09-09T02:58:29;17.40;99.90
63802;DHT22;49949;43.060;25.624;2022-09-09T03:00:55;17.40;99.90
63802;DHT22;49949;43.060;25.624;2022-09-09T03:03:23;17.40;99.90
63802;DHT22;49949;43.060;25.624;2022-09-09T03:05:49;17.40;99.90
63802;DHT22;49949;43.060;25.624;2022-09-09T03:08:16;17.30;99.90
63802;DHT22;49949;43.060;25.624;2022-09-09T03:10:42;17.30;99.90
63802;DHT22;49949;43.060;25.624;2022-09-09T03:13:08;17.10;99.90
63802;DHT22;49949;43.060;25.624;2022-09-09T03:15:34;17.10;99.90
63802;DHT22;49949;43.060;25.624;2022-09-09T03:18:01;17.10;99.90
63802;DHT22;49949;43.060;25.624;2022-09-09T03:20:28;17.00;99.90
63802;DHT22;49949;43.060;25.624;2022-09-09T03:22:55;17.00;99.90
63802;DHT22;49949;43.060;25.624;2022-09-09T03:25:22;17.00;99.90
63802;DHT22;49949;43.060;25.624;2022-09-09T03:27:51;17.00;99.90
63802;DHT22;49949;43.060;25.624;2022-09-09T03:30:21;17.00;99.90
63802;DHT22;49949;43.060;25.624;2022-09-09T03:32:47;17.00;99.90
63802;DHT22;49949;43.060;25.624;2022-09-09T03:35:13;16.90;99.90
63802;DHT22;49949;43.060;25.624;2022-09-09T03:37:39;16.90;99.90
63802;DHT22;49949;43.060;25.624;2022-09-09T03:40:05;16.90;99.90
63802;DHT22;49949;43.060;25.624;2022-09-09T03:42:31;16.80;99.90
63802;DHT22;49949;43.060;25.624;2022-09-09T03:44:57;16.70;99.90
63802;DHT22;49949;43.060;25.624;2022-09-09T03:47:24;16.70;99.90
63802;DHT22;49949;43.060;25.624;2022-09-09T03:49:50;16.70;99.90
63802;DHT22;49949;43.060;25.624;2022-09-09T03:52:16;16.70;99.90
63802;DHT22;49949;43.060;25.624;2022-09-09T03:54:42;16.70;99.90
63802;DHT22;49949;43.060;25.624;2022-09-09T03:57:11;16.60;99.90
63802;DHT22;49949;43.060;25.624;2022-09-09T03:59:37;16.50;99.90
63802;DHT22;49949;43.060;25.624;2022-09-09T04:02:04;16.50;99.90
63802;DHT22;49949;43.060;25.624;2022-09-09T04:04:29;16.50;99.90
63802;DHT22;49949;43.060;25.624;2022-09-09T04:06:55;16.50;99.90
63802;DHT22;49949;43.060;25.624;2022-09-09T04:09:21;16.50;99.90
63802;DHT22;49949;43.060;25.624;2022-09-09T04:11:47;16.50;99.90
63802;DHT22;49949;43.060;25.624;2022-09-09T04:14:12;16.40;99.90
63802;DHT22;49949;43.060;25.624;2022-09-09T04:16:38;16.40;99.90
63802;DHT22;49949;43.060;25.624;2022-09-09T04:19:05;16.50;99.90
63802;DHT22;49949;43.060;25.624;2022-09-09T04:21:32;16.50;99.90
63802;DHT22;49949;43.060;25.624;2022-09-09T04:23:58;16.50;99.90
63802;DHT22;49949;43.060;25.624;2022-09-09T04:26:24;16.60;99.90
63802;DHT22;49949;43.060;25.624;2022-09-09T04:28:50;16.60;99.90
63802;DHT22;49949;43.060;25.624;2022-09-09T04:31:20;16.50;99.90
63802;DHT22;49949;43.060;25.624;2022-09-09T04:33:49;16.60;99.90
63802;DHT22;49949;43.060;25.624;2022-09-09T04:36:15;16.60;99.90
63802;DHT22;49949;43.060;25.624;2022-09-09T04:38:41;16.60;99.90
63802;DHT22;49949;43.060;25.624;2022-09-09T04:41:07;16.70;99.90
63802;DHT22;49949;43.060;25.624;2022-09-09T04:43:33;16.80;99.90
63802;DHT22;49949;43.060;25.624;2022-09-09T04:45:59;16.90;99.90
63802;DHT22;49949;43.060;25.624;2022-09-09T04:48:26;16.90;99.90
63802;DHT22;49949;43.060;25.624;2022-09-09T04:51:06;17.10;99.90
63802;DHT22;49949;43.060;25.624;2022-09-09T04:53:32;17.10;99.90
63802;DHT22;49949;43.060;25.624;2022-09-09T04:56:04;17.10;99.90
63802;DHT22;49949;43.060;25.624;2022-09-09T04:58:30;17.10;99.90
63802;DHT22;49949;43.060;25.624;2022-09-09T05:01:03;17.20;99.90
63802;DHT22;49949;43.060;25.624;2022-09-09T05:03:29;17.30;99.90
63802;DHT22;49949;43.060;25.624;2022-09-09T05:06:09;17.40;99.90
63802;DHT22;49949;43.060;25.624;2022-09-09T05:08:36;17.50;99.90
63802;DHT22;49949;43.060;25.624;2022-09-09T05:11:03;17.70;99.90
63802;DHT22;49949;43.060;25.624;2022-09-09T05:13:29;17.80;99.90
63802;DHT22;49949;43.060;25.624;2022-09-09T05:15:57;17.90;99.90
63802;DHT22;49949;43.060;25.624;2022-09-09T05:18:23;18.10;99.90
63802;DHT22;49949;43.060;25.624;2022-09-09T05:20:49;18.40;99.90
63802;DHT22;49949;43.060;25.624;2022-09-09T05:23:16;18.60;99.90
63802;DHT22;49949;43.060;25.624;2022-09-09T05:25:42;18.80;99.90
63802;DHT22;49949;43.060;25.624;2022-09-09T05:28:09;19.00;99.90
63802;DHT22;49949;43.060;25.624;2022-09-09T05:30:35;19.40;99.90
63802;DHT22;49949;43.060;25.624;2022-09-09T05:33:00;19.60;99.90
63802;DHT22;49949;43.060;25.624;2022-09-09T05:35:26;19.90;99.90
63802;DHT22;49949;43.060;25.624;2022-09-09T05:37:52;20.30;99.90
63802;DHT22;49949;43.060;25.624;2022-09-09T05:40:18;20.20;99.90
63802;DHT22;49949;43.060;25.624;2022-09-09T05:42:44;20.10;99.90
63802;DHT22;49949;43.060;25.624;2022-09-09T05:45:10;20.50;99.90
63802;DHT22;49949;43.060;25.624;2022-09-09T05:47:36;20.60;98.70
63802;DHT22;49949;43.060;25.624;2022-09-09T05:50:03;20.90;99.00
63802;DHT22;49949;43.060;25.624;2022-09-09T05:52:29;21.30;99.90
63802;DHT22;49949;43.060;25.624;2022-09-09T05:54:55;21.20;98.40
63802;DHT22;49949;43.060;25.624;2022-09-09T05:57:22;21.40;97.90
63802;DHT22;49949;43.060;25.624;2022-09-09T05:59:48;21.60;98.00
63802;DHT22;49949;43.060;25.624;2022-09-09T06:02:13;21.70;95.60
63802;DHT22;49949;43.060;25.624;2022-09-09T06:04:39;21.90;96.70
63802;DHT22;49949;43.060;25.624;2022-09-09T06:07:05;22.00;98.80
63802;DHT22;49949;43.060;25.624;2022-09-09T06:09:31;22.20;98.70
63802;DHT22;49949;43.060;25.624;2022-09-09T06:11:57;22.20;91.90
63802;DHT22;49949;43.060;25.624;2022-09-09T06:14:24;22.40;92.60
63802;DHT22;49949;43.060;25.624;2022-09-09T06:16:51;22.60;88.30
63802;DHT22;49949;43.060;25.624;2022-09-09T06:19:17;22.70;87.20
63802;DHT22;49949;43.060;25.624;2022-09-09T06:21:43;22.80;86.90
63802;DHT22;49949;43.060;25.624;2022-09-09T06:24:10;23.00;86.50
63802;DHT22;49949;43.060;25.624;2022-09-09T06:26:38;23.10;84.90
63802;DHT22;49949;43.060;25.624;2022-09-09T06:29:06;23.20;84.60
63802;DHT22;49949;43.060;25.624;2022-09-09T06:31:34;23.40;81.90
63802;DHT22;49949;43.060;25.624;2022-09-09T06:34:01;23.60;81.40
63802;DHT22;49949;43.060;25.624;2022-09-09T06:36:29;23.70;82.70
63802;DHT22;49949;43.060;25.624;2022-09-09T06:38:56;23.90;83.60
63802;DHT22;49949;43.060;25.624;2022-09-09T06:41:24;24.00;83.00
63802;DHT22;49949;43.060;25.624;2022-09-09T06:43:51;24.20;80.00
63802;DHT22;49949;43.060;25.624;2022-09-09T06:46:20;24.40;79.50
63802;DHT22;49949;43.060;25.624;2022-09-09T06:48:47;24.60;79.00
63802;DHT22;49949;43.060;25.624;2022-09-09T06:51:15;24.70;77.70
63802;DHT22;49949;43.060;25.624;2022-09-09T06:53:43;24.80;75.40
63802;DHT22;49949;43.060;25.624;2022-09-09T06:58:44;25.10;74.80
63802;DHT22;49949;43.060;25.624;2022-09-09T07:01:13;25.30;74.10
63802;DHT22;49949;43.060;25.624;2022-09-09T07:03:39;25.70;73.80
63802;DHT22;49949;43.060;25.624;2022-09-09T07:06:06;25.70;74.00
63802;DHT22;49949;43.060;25.624;2022-09-09T07:08:33;25.00;70.80
63802;DHT22;49949;43.060;25.624;2022-09-09T07:11:03;26.60;70.20
63802;DHT22;49949;43.060;25.624;2022-09-09T07:13:33;26.20;73.60
63802;DHT22;49949;43.060;25.624;2022-09-09T07:16:05;26.40;69.10
63802;DHT22;49949;43.060;25.624;2022-09-09T07:18:31;26.60;69.10
63802;DHT22;49949;43.060;25.624;2022-09-09T07:20:58;26.70;69.50
63802;DHT22;49949;43.060;25.624;2022-09-09T07:23:25;26.90;70.10
63802;DHT22;49949;43.060;25.624;2022-09-09T07:25:51;27.00;70.00
63802;DHT22;49949;43.060;25.624;2022-09-09T07:28:19;27.20;69.00
63802;DHT22;49949;43.060;25.624;2022-09-09T07:30:53;27.40;67.80
63802;DHT22;49949;43.060;25.624;2022-09-09T07:33:19;27.70;65.50
63802;DHT22;49949;43.060;25.624;2022-09-09T07:35:45;28.00;66.70
63802;DHT22;49949;43.060;25.624;2022-09-09T07:38:11;28.10;64.80
63802;DHT22;49949;43.060;25.624;2022-09-09T07:40:37;29.80;70.90
63802;DHT22;49949;43.060;25.624;2022-09-09T07:43:03;28.40;59.90
63802;DHT22;49949;43.060;25.624;2022-09-09T07:45:28;28.40;59.90
63802;DHT22;49949;43.060;25.624;2022-09-09T07:47:55;28.60;58.60
63802;DHT22;49949;43.060;25.624;2022-09-09T07:50:22;27.70;66.40
63802;DHT22;49949;43.060;25.624;2022-09-09T07:52:50;28.90;61.30
63802;DHT22;49949;43.060;25.624;2022-09-09T07:55:16;29.10;58.50
63802;DHT22;49949;43.060;25.624;2022-09-09T07:57:42;29.30;54.40
63802;DHT22;49949;43.060;25.624;2022-09-09T08:00:08;29.20;56.00
63802;DHT22;49949;43.060;25.624;2022-09-09T08:02:35;29.20;55.10
63802;DHT22;49949;43.060;25.624;2022-09-09T08:05:01;32.90;55.80
63802;DHT22;49949;43.060;25.624;2022-09-09T08:07:27;29.70;53.90
63802;DHT22;49949;43.060;25.624;2022-09-09T08:09:54;29.80;53.00
63802;DHT22;49949;43.060;25.624;2022-09-09T08:12:21;30.10;55.60
63802;DHT22;49949;43.060;25.624;2022-09-09T08:14:47;30.10;52.30
63802;DHT22;49949;43.060;25.624;2022-09-09T08:17:14;30.10;53.00
63802;DHT22;49949;43.060;25.624;2022-09-09T08:19:40;30.20;53.90
63802;DHT22;49949;43.060;25.624;2022-09-09T08:22:05;30.30;51.20
63802;DHT22;49949;43.060;25.624;2022-09-09T08:24:31;30.30;51.80
63802;DHT22;49949;43.060;25.624;2022-09-09T08:26:57;30.40;51.20
63802;DHT22;49949;43.060;25.624;2022-09-09T08:29:23;30.50;49.50
63802;DHT22;49949;43.060;25.624;2022-09-09T08:31:51;30.40;50.60
63802;DHT22;49949;43.060;25.624;2022-09-09T08:34:18;30.50;50.00
63802;DHT22;49949;43.060;25.624;2022-09-09T08:36:47;30.70;49.40
63802;DHT22;49949;43.060;25.624;2022-09-09T08:39:15;30.90;49.50
63802;DHT22;49949;43.060;25.624;2022-09-09T08:58:23;30.60;48.00
63802;DHT22;49949;43.060;25.624;2022-09-09T09:14:24;30.90;48.00
63802;DHT22;49949;43.060;25.624;2022-09-09T09:16:57;31.00;47.90
63802;DHT22;49949;43.060;25.624;2022-09-09T09:19:24;31.00;47.30
63802;DHT22;49949;43.060;25.624;2022-09-09T09:27:13;31.50;48.00
63802;DHT22;49949;43.060;25.624;2022-09-09T09:29:40;31.40;48.00
63802;DHT22;49949;43.060;25.624;2022-09-09T09:32:13;31.50;48.50
63802;DHT22;49949;43.060;25.624;2022-09-09T09:34:40;31.50;47.40
63802;DHT22;49949;43.060;25.624;2022-09-09T09:37:15;31.50;47.70
63802;DHT22;49949;43.060;25.624;2022-09-09T09:39:45;31.40;47.00
63802;DHT22;49949;43.060;25.624;2022-09-09T09:42:16;31.40;47.00
63802;DHT22;49949;43.060;25.624;2022-09-09T09:44:42;31.50;47.50
63802;DHT22;49949;43.060;25.624;2022-09-09T09:47:12;31.60;47.40
63802;DHT22;49949;43.060;25.624;2022-09-09T09:49:39;31.90;47.20
63802;DHT22;49949;43.060;25.624;2022-09-09T09:52:06;32.00;46.40
63802;DHT22;49949;43.060;25.624;2022-09-09T09:54:37;32.00;46.00
63802;DHT22;49949;43.060;25.624;2022-09-09T09:57:14;31.80;46.00
63802;DHT22;49949;43.060;25.624;2022-09-09T09:59:40;31.60;46.70
63802;DHT22;49949;43.060;25.624;2022-09-09T10:02:39;31.80;45.90
63802;DHT22;49949;43.060;25.624;2022-09-09T10:05:27;31.80;44.70
63802;DHT22;49949;43.060;25.624;2022-09-09T10:08:20;31.70;46.40
63802;DHT22;49949;43.060;25.624;2022-09-09T10:13:17;31.90;46.00
63802;DHT22;49949;43.060;25.624;2022-09-09T10:20:58;31.80;46.90
63802;DHT22;49949;43.060;25.624;2022-09-09T10:36:24;32.00;46.10
63802;DHT22;49949;43.060;25.624;2022-09-09T10:39:03;32.20;45.90
63802;DHT22;49949;43.060;25.624;2022-09-09T10:55:41;32.30;45.00
63802;DHT22;49949;43.060;25.624;2022-09-09T10:58:14;32.50;45.00
63802;DHT22;49949;43.060;25.624;2022-09-09T11:00:48;32.50;45.40
63802;DHT22;49949;43.060;25.624;2022-09-09T11:03:26;32.60;46.20
63802;DHT22;49949;43.060;25.624;2022-09-09T11:06:16;32.70;44.00
63802;DHT22;49949;43.060;25.624;2022-09-09T11:08:44;32.60;43.60
63802;DHT22;49949;43.060;25.624;2022-09-09T11:11:25;32.70;44.50
63802;DHT22;49949;43.060;25.624;2022-09-09T11:21:55;32.90;43.70
63802;DHT22;49949;43.060;25.624;2022-09-09T11:27:31;32.70;43.20
63802;DHT22;49949;43.060;25.624;2022-09-09T11:30:18;32.60;44.00
63802;DHT22;49949;43.060;25.624;2022-09-09T11:35:55;32.50;44.50
63802;DHT22;49949;43.060;25.624;2022-09-09T11:41:09;32.50;44.40
63802;DHT22;49949;43.060;25.624;2022-09-09T11:43:52;32.40;44.60
63802;DHT22;49949;43.060;25.624;2022-09-09T11:46:31;32.40;45.40
63802;DHT22;49949;43.060;25.624;2022-09-09T11:49:04;32.20;45.20
63802;DHT22;49949;43.060;25.624;2022-09-09T11:51:32;32.00;45.20
63802;DHT22;49949;43.060;25.624;2022-09-09T11:54:25;32.00;45.70
63802;DHT22;49949;43.060;25.624;2022-09-09T11:56:48;32.10;47.50
63802;DHT22;49949;43.060;25.624;2022-09-09T11:59:22;32.30;45.10
63802;DHT22;49949;43.060;25.624;2022-09-09T12:12:21;33.10;43.80
63802;DHT22;49949;43.060;25.624;2022-09-09T12:15:03;33.20;43.50
63802;DHT22;49949;43.060;25.624;2022-09-09T12:17:31;33.30;43.10
63802;DHT22;49949;43.060;25.624;2022-09-09T12:20:15;33.50;41.80
63802;DHT22;49949;43.060;25.624;2022-09-09T12:23:03;33.30;43.10
63802;DHT22;49949;43.060;25.624;2022-09-09T12:25:53;33.30;42.40
63802;DHT22;49949;43.060;25.624;2022-09-09T12:28:40;33.40;42.90
63802;DHT22;49949;43.060;25.624;2022-09-09T12:39:59;33.40;41.90
63802;DHT22;49949;43.060;25.624;2022-09-09T12:42:26;33.40;42.10
63802;DHT22;49949;43.060;25.624;2022-09-09T12:45:00;33.20;42.90
63802;DHT22;49949;43.060;25.624;2022-09-09T12:47:40;33.40;42.90
63802;DHT22;49949;43.060;25.624;2022-09-09T12:50:29;33.30;42.70
63802;DHT22;49949;43.060;25.624;2022-09-09T12:53:00;32.90;43.70
63802;DHT22;49949;43.060;25.624;2022-09-09T12:55:37;32.60;44.20
63802;DHT22;49949;43.060;25.624;2022-09-09T12:58:04;32.40;45.00
63802;DHT22;49949;43.060;25.624;2022-09-09T13:00:33;32.10;45.10
63802;DHT22;49949;43.060;25.624;2022-09-09T13:03:01;32.00;46.00
63802;DHT22;49949;43.060;25.624;2022-09-09T13:05:34;32.00;46.40
63802;DHT22;49949;43.060;25.624;2022-09-09T13:08:04;31.80;45.90
63802;DHT22;49949;43.060;25.624;2022-09-09T13:10:33;31.70;46.30
63802;DHT22;49949;43.060;25.624;2022-09-09T13:12:59;31.70;46.60
63802;DHT22;49949;43.060;25.624;2022-09-09T13:15:28;31.50;46.70
63802;DHT22;49949;43.060;25.624;2022-09-09T13:18:01;31.50;47.80
63802;DHT22;49949;43.060;25.624;2022-09-09T13:20:28;31.30;47.90
63802;DHT22;49949;43.060;25.624;2022-09-09T13:22:56;31.30;48.00
63802;DHT22;49949;43.060;25.624;2022-09-09T13:25:28;31.20;48.10
63802;DHT22;49949;43.060;25.624;2022-09-09T13:28:19;31.20;48.50
63802;DHT22;49949;43.060;25.624;2022-09-09T13:30:42;31.00;48.80
63802;DHT22;49949;43.060;25.624;2022-09-09T13:35:53;30.90;48.90
63802;DHT22;49949;43.060;25.624;2022-09-09T13:38:20;30.80;49.30
63802;DHT22;49949;43.060;25.624;2022-09-09T13:43:31;30.80;50.00
63802;DHT22;49949;43.060;25.624;2022-09-09T13:46:00;30.80;49.50
63802;DHT22;49949;43.060;25.624;2022-09-09T13:48:27;30.60;50.50
63802;DHT22;49949;43.060;25.624;2022-09-09T13:51:03;30.50;50.50
63802;DHT22;49949;43.060;25.624;2022-09-09T13:53:32;30.60;51.00
63802;DHT22;49949;43.060;25.624;2022-09-09T13:55:58;30.50;51.00
63802;DHT22;49949;43.060;25.624;2022-09-09T13:58:25;30.40;51.50
63802;DHT22;49949;43.060;25.624;2022-09-09T14:00:52;30.30;51.90
63802;DHT22;49949;43.060;25.624;2022-09-09T14:03:19;30.20;51.70
63802;DHT22;49949;43.060;25.624;2022-09-09T14:05:45;30.20;52.30
63802;DHT22;49949;43.060;25.624;2022-09-09T14:08:20;30.20;52.60
63802;DHT22;49949;43.060;25.624;2022-09-09T14:10:47;30.30;53.00
63802;DHT22;49949;43.060;25.624;2022-09-09T14:13:12;30.30;53.50
63802;DHT22;49949;43.060;25.624;2022-09-09T14:15:38;30.40;52.10
63802;DHT22;49949;43.060;25.624;2022-09-09T14:18:04;30.40;52.20
63802;DHT22;49949;43.060;25.624;2022-09-09T14:20:30;30.40;52.50
63802;DHT22;49949;43.060;25.624;2022-09-09T14:22:56;30.30;52.20
63802;DHT22;49949;43.060;25.624;2022-09-09T14:25:23;30.40;52.80
63802;DHT22;49949;43.060;25.624;2022-09-09T14:27:49;30.40;52.50
63802;DHT22;49949;43.060;25.624;2022-09-09T14:30:16;30.40;52.70
63802;DHT22;49949;43.060;25.624;2022-09-09T14:32:42;30.30;52.60
63802;DHT22;49949;43.060;25.624;2022-09-09T14:35:08;30.30;52.70
63802;DHT22;49949;43.060;25.624;2022-09-09T14:37:34;30.30;52.20
63802;DHT22;49949;43.060;25.624;2022-09-09T14:40:00;30.30;53.30
63802;DHT22;49949;43.060;25.624;2022-09-09T14:42:26;30.20;53.00
63802;DHT22;49949;43.060;25.624;2022-09-09T14:44:52;30.20;58.00
63802;DHT22;49949;43.060;25.624;2022-09-09T14:47:18;30.00;58.10
63802;DHT22;49949;43.060;25.624;2022-09-09T14:49:43;29.80;55.60
63802;DHT22;49949;43.060;25.624;2022-09-09T14:52:11;30.00;56.70
63802;DHT22;49949;43.060;25.624;2022-09-09T14:54:36;30.10;57.10
63802;DHT22;49949;43.060;25.624;2022-09-09T14:57:02;30.10;55.00
63802;DHT22;49949;43.060;25.624;2022-09-09T14:59:28;30.00;53.80
63802;DHT22;49949;43.060;25.624;2022-09-09T15:01:54;30.00;54.70
63802;DHT22;49949;43.060;25.624;2022-09-09T15:04:20;30.00;55.50
63802;DHT22;49949;43.060;25.624;2022-09-09T15:06:46;29.90;56.60
63802;DHT22;49949;43.060;25.624;2022-09-09T15:09:14;29.70;58.10
63802;DHT22;49949;43.060;25.624;2022-09-09T15:11:40;29.70;57.00
63802;DHT22;49949;43.060;25.624;2022-09-09T15:14:07;29.80;57.50
63802;DHT22;49949;43.060;25.624;2022-09-09T15:16:33;29.80;55.70
63802;DHT22;49949;43.060;25.624;2022-09-09T15:19:01;29.80;56.50
63802;DHT22;49949;43.060;25.624;2022-09-09T15:21:33;29.90;55.10
63802;DHT22;49949;43.060;25.624;2022-09-09T15:23:59;29.90;56.80
63802;DHT22;49949;43.060;25.624;2022-09-09T15:26:26;30.10;56.00
63802;DHT22;49949;43.060;25.624;2022-09-09T15:28:53;30.10;55.90
63802;DHT22;49949;43.060;25.624;2022-09-09T15:31:24;30.00;56.10
63802;DHT22;49949;43.060;25.624;2022-09-09T15:33:50;30.00;58.60
63802;DHT22;49949;43.060;25.624;2022-09-09T15:36:19;29.90;59.10
63802;DHT22;49949;43.060;25.624;2022-09-09T15:38:45;29.80;58.20
63802;DHT22;49949;43.060;25.624;2022-09-09T15:41:13;29.70;59.10
63802;DHT22;49949;43.060;25.624;2022-09-09T15:43:38;29.60;60.10
63802;DHT22;49949;43.060;25.624;2022-09-09T15:48:42;29.50;61.80
63802;DHT22;49949;43.060;25.624;2022-09-09T15:51:10;29.20;64.80
63802;DHT22;49949;43.060;25.624;2022-09-09T15:53:36;29.20;64.90
63802;DHT22;49949;43.060;25.624;2022-09-09T15:56:05;29.20;64.70
63802;DHT22;49949;43.060;25.624;2022-09-09T15:58:32;29.10;66.50
63802;DHT22;49949;43.060;25.624;2022-09-09T16:01:09;29.10;67.40
63802;DHT22;49949;43.060;25.624;2022-09-09T16:03:40;29.10;66.90
63802;DHT22;49949;43.060;25.624;2022-09-09T16:06:09;29.00;67.00
63802;DHT22;49949;43.060;25.624;2022-09-09T16:08:36;28.90;65.00
63802;DHT22;49949;43.060;25.624;2022-09-09T16:11:11;28.90;65.00
63802;DHT22;49949;43.060;25.624;2022-09-09T16:13:38;28.90;64.80
63802;DHT22;49949;43.060;25.624;2022-09-09T16:16:05;28.70;68.10
63802;DHT22;49949;43.060;25.624;2022-09-09T16:18:39;28.60;70.40
63802;DHT22;49949;43.060;25.624;2022-09-09T16:21:06;28.40;70.20
63802;DHT22;49949;43.060;25.624;2022-09-09T16:23:34;28.30;71.10
63802;DHT22;49949;43.060;25.624;2022-09-09T16:26:00;28.20;70.90
63802;DHT22;49949;43.060;25.624;2022-09-09T16:28:27;28.00;70.90
63802;DHT22;49949;43.060;25.624;2022-09-09T16:30:52;28.00;73.00
63802;DHT22;49949;43.060;25.624;2022-09-09T16:33:18;27.80;73.60
63802;DHT22;49949;43.060;25.624;2022-09-09T16:35:44;27.70;71.50
63802;DHT22;49949;43.060;25.624;2022-09-09T16:38:10;27.70;74.60
63802;DHT22;49949;43.060;25.624;2022-09-09T16:40:37;27.50;72.60
63802;DHT22;49949;43.060;25.624;2022-09-09T16:43:06;27.40;72.50
63802;DHT22;49949;43.060;25.624;2022-09-09T16:45:32;27.40;75.60
63802;DHT22;49949;43.060;25.624;2022-09-09T16:47:59;27.30;76.00
63802;DHT22;49949;43.060;25.624;2022-09-09T16:50:26;27.20;76.90
63802;DHT22;49949;43.060;25.624;2022-09-09T16:52:52;27.00;78.30
63802;DHT22;49949;43.060;25.624;2022-09-09T16:55:18;26.90;78.10
63802;DHT22;49949;43.060;25.624;2022-09-09T16:57:46;26.90;77.40
63802;DHT22;49949;43.060;25.624;2022-09-09T17:00:15;26.80;76.70
63802;DHT22;49949;43.060;25.624;2022-09-09T17:02:43;26.70;77.30
63802;DHT22;49949;43.060;25.624;2022-09-09T17:05:09;26.70;79.70
63802;DHT22;49949;43.060;25.624;2022-09-09T17:07:35;26.50;80.50
63802;DHT22;49949;43.060;25.624;2022-09-09T17:10:01;26.30;81.80
63802;DHT22;49949;43.060;25.624;2022-09-09T17:12:27;26.20;81.10
63802;DHT22;49949;43.060;25.624;2022-09-09T17:14:53;26.10;80.60
63802;DHT22;49949;43.060;25.624;2022-09-09T17:17:20;26.10;82.70
63802;DHT22;49949;43.060;25.624;2022-09-09T17:19:46;26.00;83.40
63802;DHT22;49949;43.060;25.624;2022-09-09T17:22:12;26.00;84.10
63802;DHT22;49949;43.060;25.624;2022-09-09T17:24:38;26.00;84.40
63802;DHT22;49949;43.060;25.624;2022-09-09T17:27:04;26.00;84.10
63802;DHT22;49949;43.060;25.624;2022-09-09T17:29:30;25.90;85.10
63802;DHT22;49949;43.060;25.624;2022-09-09T17:31:55;25.80;85.90
63802;DHT22;49949;43.060;25.624;2022-09-09T17:34:21;25.80;86.00
63802;DHT22;49949;43.060;25.624;2022-09-09T17:36:47;25.70;85.50
63802;DHT22;49949;43.060;25.624;2022-09-09T17:39:13;25.70;85.20
63802;DHT22;49949;43.060;25.624;2022-09-09T17:41:39;25.70;84.10
63802;DHT22;49949;43.060;25.624;2022-09-09T17:44:08;25.60;85.30
63802;DHT22;49949;43.060;25.624;2022-09-09T17:46:36;25.60;87.30
63802;DHT22;49949;43.060;25.624;2022-09-09T17:49:08;25.40;88.20
63802;DHT22;49949;43.060;25.624;2022-09-09T17:51:35;25.10;89.80
63802;DHT22;49949;43.060;25.624;2022-09-09T17:54:06;25.10;90.20
63802;DHT22;49949;43.060;25.624;2022-09-09T17:56:36;25.10;90.00
63802;DHT22;49949;43.060;25.624;2022-09-09T17:59:04;25.10;90.20